Time;durP1;ratioP1;P1;durP2;ratioP2;P2;SDS_P1;SDS_P2;PMS_P1;PMS_P2;Temp;Humidity;BMP_temperature;BMP_pressure;BME280_temperature;BME280_humidity;BME280_pressure;Samples;Min_cycle;Max_cycle;Signal;HPM_P1;HPM_P2
2023/12/09 00:01:19;;;;;;;392.40;226.77;;;-0.70;1.00;;;;;;4992841;28;20049;-79
2023/12/09 00:03:46;;;;;;;379.17;221.10;;;-0.70;1.00;;;;;;4995206;28;20046;-77
2023/12/09 00:06:14;;;;;;;363.60;215.75;;;-0.70;1.00;;;;;;4990393;28;20058;-78
2023/12/09 00:08:42;;;;;;;358.85;207.35;;;-0.80;1.00;;;;;;4988350;28;20166;-79
2023/12/09 00:11:10;;;;;;;341.23;201.35;;;-0.90;1.00;;;;;;4989449;28;20121;-79
2023/12/09 00:13:37;;;;;;;325.65;193.10;;;-0.80;1.00;;;;;;4987874;28;20085;-77
2023/12/09 00:16:07;;;;;;;309.17;184.70;;;-0.80;1.00;;;;;;4988526;28;20054;-79
2023/12/09 00:18:35;;;;;;;310.77;180.93;;;-1.00;1.00;;;;;;4988656;28;20047;-78
2023/12/09 00:21:02;;;;;;;305.48;179.40;;;-1.10;1.00;;;;;;4988917;28;20129;-79
2023/12/09 00:23:30;;;;;;;306.30;177.32;;;-1.00;99.90;;;;;;5004277;28;20433;-79
2023/12/09 00:25:57;;;;;;;297.27;173.10;;;-0.90;99.90;;;;;;5012223;28;20045;-78
2023/12/09 00:28:26;;;;;;;308.08;175.55;;;-0.90;91.20;;;;;;4994279;28;20089;-77
2023/12/09 00:30:53;;;;;;;306.35;174.85;;;-0.90;1.00;;;;;;5012932;28;20481;-78
2023/12/09 00:33:22;;;;;;;299.20;181.88;;;-0.90;1.00;;;;;;5015395;28;20076;-80
2023/12/09 00:35:50;;;;;;;304.10;177.77;;;-1.00;99.90;;;;;;5015426;28;20069;-77
2023/12/09 00:38:18;;;;;;;286.42;168.55;;;-1.00;99.90;;;;;;5013969;28;20045;-78
2023/12/09 00:40:45;;;;;;;286.05;158.65;;;-1.10;99.90;;;;;;5012464;28;20056;-78
2023/12/09 00:43:13;;;;;;;288.33;166.98;;;-1.20;99.90;;;;;;5011529;28;20069;-78
2023/12/09 00:45:40;;;;;;;293.95;164.57;;;-1.20;1.00;;;;;;5012272;28;20046;-79
2023/12/09 00:48:08;;;;;;;280.48;157.65;;;-1.20;1.00;;;;;;5012149;28;20130;-78
2023/12/09 00:50:36;;;;;;;262.83;150.10;;;-1.20;99.90;;;;;;4993028;28;20149;-78
2023/12/09 00:53:04;;;;;;;255.35;146.73;;;-1.20;1.00;;;;;;5011465;28;20132;-78
2023/12/09 00:55:32;;;;;;;215.60;123.03;;;-1.20;1.00;;;;;;4994114;28;20116;-78
2023/12/09 00:57:59;;;;;;;215.80;123.53;;;-1.20;1.00;;;;;;5011749;28;20115;-79
2023/12/09 01:00:27;;;;;;;227.60;129.43;;;-1.20;1.00;;;;;;5010533;28;20411;-79
2023/12/09 01:02:54;;;;;;;227.05;126.65;;;-1.20;1.00;;;;;;5011736;28;20054;-78
2023/12/09 01:05:22;;;;;;;228.52;125.30;;;-1.30;99.90;;;;;;5012615;28;20129;-79
2023/12/09 01:07:50;;;;;;;225.23;127.88;;;-1.30;99.90;;;;;;5018886;28;20050;-79
2023/12/09 01:10:18;;;;;;;227.43;127.20;;;-1.30;12.90;;;;;;5010831;28;20123;-78
2023/12/09 01:12:46;;;;;;;217.48;123.10;;;-1.30;1.00;;;;;;5011661;28;20041;-80
2023/12/09 01:15:14;;;;;;;224.02;123.97;;;-1.40;1.00;;;;;;5011113;28;20084;-79
2023/12/09 01:17:41;;;;;;;218.93;123.35;;;-1.40;1.00;;;;;;4995962;28;20050;-79
2023/12/09 01:20:10;;;;;;;221.23;125.82;;;-1.50;1.00;;;;;;5012963;28;20125;-78
2023/12/09 01:22:37;;;;;;;215.23;120.00;;;-1.40;1.00;;;;;;5014503;28;20120;-78
2023/12/09 01:25:07;;;;;;;223.27;122.72;;;-1.40;1.00;;;;;;5001413;28;20046;-77
2023/12/09 01:27:35;;;;;;;212.07;120.80;;;-1.40;1.00;;;;;;5007999;28;20131;-79
2023/12/09 01:30:04;;;;;;;209.30;118.00;;;-1.50;99.90;;;;;;5007159;28;20038;-79
2023/12/09 01:32:31;;;;;;;204.32;119.13;;;-1.50;99.90;;;;;;5005241;28;20038;-80
2023/12/09 01:34:59;;;;;;;196.07;112.35;;;-1.50;99.90;;;;;;5004352;28;20058;-80
2023/12/09 01:37:26;;;;;;;199.32;115.28;;;-1.50;99.90;;;;;;4999104;28;20061;-79
2023/12/09 01:39:54;;;;;;;202.68;111.22;;;-1.60;1.00;;;;;;4997465;28;20073;-79
2023/12/09 01:42:22;;;;;;;187.90;106.20;;;-1.70;1.00;;;;;;4998680;28;20054;-79
2023/12/09 01:44:50;;;;;;;193.85;107.32;;;-1.70;99.90;;;;;;4997690;28;20104;-79
2023/12/09 01:47:18;;;;;;;199.00;108.95;;;-1.60;99.90;;;;;;4998418;28;20050;-79
2023/12/09 01:49:46;;;;;;;187.05;104.95;;;-1.70;99.90;;;;;;4994397;28;20527;-78
2023/12/09 01:52:14;;;;;;;178.25;102.50;;;-1.60;99.90;;;;;;4996969;28;20043;-79
2023/12/09 01:54:41;;;;;;;179.82;102.72;;;-1.60;99.90;;;;;;4990197;28;20148;-79
2023/12/09 01:57:09;;;;;;;188.38;107.07;;;-1.70;89.90;;;;;;4991155;28;20070;-79
2023/12/09 01:59:39;;;;;;;178.30;102.97;;;-1.70;99.90;;;;;;4991183;28;20108;-78
2023/12/09 02:02:08;;;;;;;170.90;98.85;;;-1.70;1.00;;;;;;4991671;28;20128;-78
2023/12/09 02:04:35;;;;;;;148.98;87.68;;;-1.70;76.30;;;;;;4991156;28;20065;-79
2023/12/09 02:07:03;;;;;;;154.98;89.95;;;-1.70;99.90;;;;;;4990356;28;20062;-78
2023/12/09 02:09:31;;;;;;;144.77;85.18;;;-1.80;1.00;;;;;;4989109;28;20070;-78
2023/12/09 02:12:07;;;;;;;157.20;89.35;;;-1.80;1.00;;;;;;4990560;28;20053;-78
2023/12/09 02:14:37;;;;;;;163.10;93.75;;;-1.80;1.00;;;;;;4990975;28;20108;-79
2023/12/09 02:17:12;;;;;;;166.50;95.90;;;-1.90;99.90;;;;;;4993311;28;20093;-77
2023/12/09 02:19:41;;;;;;;151.52;90.95;;;-1.90;1.00;;;;;;4994759;28;20651;-79
2023/12/09 02:22:09;;;;;;;161.73;95.50;;;-1.90;1.00;;;;;;4998021;28;20047;-77
2023/12/09 02:24:38;;;;;;;171.02;101.85;;;-1.90;1.00;;;;;;5017143;28;20046;-77
2023/12/09 02:27:11;;;;;;;181.45;109.25;;;-1.90;1.00;;;;;;5014414;28;20405;-80
2023/12/09 02:29:53;;;;;;;175.63;102.97;;;-1.90;1.00;;;;;;5013244;28;20102;-79
2023/12/09 02:32:24;;;;;;;174.80;99.50;;;-1.90;99.90;;;;;;5013894;28;20506;-79
2023/12/09 02:34:53;;;;;;;167.02;100.15;;;-1.90;1.00;;;;;;5013285;28;20375;-79
2023/12/09 02:37:21;;;;;;;168.00;97.30;;;-2.10;99.90;;;;;;5013934;28;20034;-80
2023/12/09 02:39:51;;;;;;;165.55;98.28;;;-2.20;1.00;;;;;;5015370;28;20045;-80
2023/12/09 02:42:19;;;;;;;152.07;90.85;;;-2.10;99.90;;;;;;5013370;28;20673;-77
2023/12/09 02:44:48;;;;;;;136.10;79.03;;;-2.10;1.00;;;;;;5009199;28;20057;-77
2023/12/09 02:47:15;;;;;;;108.15;65.57;;;-2.20;99.90;;;;;;5010736;28;20045;-77
2023/12/09 02:49:43;;;;;;;96.00;59.90;;;-2.30;1.00;;;;;;5007215;28;20565;-79
2023/12/09 02:52:11;;;;;;;95.38;57.28;;;-2.50;1.00;;;;;;4993113;28;20045;-79
2023/12/09 02:54:39;;;;;;;96.82;57.55;;;-2.50;1.00;;;;;;5009469;28;20191;-79
2023/12/09 02:57:08;;;;;;;89.80;55.08;;;-2.50;13.40;;;;;;5009258;28;20132;-78
2023/12/09 02:59:36;;;;;;;88.97;54.65;;;-2.20;99.90;;;;;;5008929;28;20099;-77
2023/12/09 03:02:04;;;;;;;85.60;52.53;;;-2.10;1.00;;;;;;5009760;28;20041;-78
2023/12/09 03:04:32;;;;;;;85.78;50.08;;;-2.10;99.90;;;;;;5008881;28;20065;-77
2023/12/09 03:06:59;;;;;;;91.72;55.78;;;-2.10;1.00;;;;;;5009514;28;20052;-80
2023/12/09 03:09:27;;;;;;;95.57;56.22;;;-2.10;99.90;;;;;;5008762;28;20077;-79
2023/12/09 03:11:54;;;;;;;96.30;57.70;;;-2.20;1.00;;;;;;5009624;28;20037;-78
2023/12/09 03:14:23;;;;;;;106.85;64.35;;;-2.10;1.00;;;;;;4991108;28;20081;-78
2023/12/09 03:16:51;;;;;;;123.18;72.38;;;-2.20;1.00;;;;;;5009554;28;20085;-79
2023/12/09 03:19:18;;;;;;;131.23;77.38;;;-2.20;1.00;;;;;;5008652;28;20125;-79
2023/12/09 03:21:46;;;;;;;125.90;74.63;;;-2.20;27.90;;;;;;5007980;28;20058;-78
2023/12/09 03:24:13;;;;;;;122.55;71.95;;;-2.20;99.90;;;;;;5008510;28;20100;-77
2023/12/09 03:26:41;;;;;;;135.35;79.90;;;-2.10;99.90;;;;;;5008914;28;20037;-78
2023/12/09 03:29:08;;;;;;;125.95;75.07;;;-2.10;99.90;;;;;;5008350;28;20037;-79
2023/12/09 03:31:41;;;;;;;110.00;65.78;;;-2.10;1.00;;;;;;5009122;28;20049;-79
2023/12/09 03:34:09;;;;;;;112.15;64.75;;;-2.20;1.00;;;;;;5006111;28;20057;-79
2023/12/09 03:36:36;;;;;;;100.85;61.20;;;-2.20;99.90;;;;;;5008006;28;20419;-79
2023/12/09 03:39:04;;;;;;;109.22;67.07;;;-2.20;99.90;;;;;;5009072;28;20120;-79
2023/12/09 03:41:31;;;;;;;120.15;72.72;;;-2.20;99.90;;;;;;5009378;28;20077;-80
2023/12/09 03:43:58;;;;;;;114.18;67.82;;;-2.20;33.60;;;;;;5007447;28;20041;-77
2023/12/09 03:46:26;;;;;;;114.45;70.65;;;-2.20;1.00;;;;;;5008979;28;20613;-78
2023/12/09 03:48:55;;;;;;;108.75;65.40;;;-2.20;99.90;;;;;;4991214;28;20040;-77
2023/12/09 03:51:24;;;;;;;110.47;66.10;;;-2.20;99.90;;;;;;5010202;28;20058;-78
2023/12/09 03:53:52;;;;;;;110.30;64.97;;;-2.30;99.90;;;;;;5013105;28;20128;-78
2023/12/09 03:56:20;;;;;;;107.20;64.85;;;-2.40;1.00;;;;;;5011966;28;20089;-78
2023/12/09 03:58:48;;;;;;;109.13;66.68;;;-2.40;99.90;;;;;;5012507;28;20108;-79
2023/12/09 04:01:15;;;;;;;116.70;68.07;;;-2.40;1.00;;;;;;5012506;28;20452;-79
2023/12/09 04:03:43;;;;;;;105.90;64.28;;;-2.30;99.90;;;;;;5012921;28;20061;-79
2023/12/09 04:06:12;;;;;;;108.63;64.85;;;-2.30;99.90;;;;;;5012549;28;20092;-79
2023/12/09 04:08:39;;;;;;;100.53;59.28;;;-2.40;28.30;;;;;;5012961;28;20037;-80
2023/12/09 04:11:07;;;;;;;95.97;58.38;;;-2.40;99.90;;;;;;5011685;28;20267;-80
2023/12/09 04:13:35;;;;;;;78.43;47.70;;;-2.40;99.90;;;;;;5012011;28;20262;-78
2023/12/09 04:16:02;;;;;;;79.32;51.20;;;-2.40;72.80;;;;;;5011835;28;20050;-77
2023/12/09 04:18:30;;;;;;;82.80;50.10;;;-2.60;1.00;;;;;;5012359;28;20046;-77
2023/12/09 04:20:57;;;;;;;84.75;50.95;;;-2.50;99.90;;;;;;5012165;28;20139;-77
2023/12/09 04:23:26;;;;;;;79.45;49.15;;;-2.50;1.00;;;;;;5011109;28;20227;-78
2023/12/09 04:25:54;;;;;;;83.47;52.47;;;-2.50;1.00;;;;;;5011876;28;20096;-78
2023/12/09 04:28:22;;;;;;;86.85;53.47;;;-2.60;1.00;;;;;;5011482;28;20045;-77
2023/12/09 04:30:50;;;;;;;87.65;55.80;;;-2.70;5.50;;;;;;5012220;28;20480;-78
2023/12/09 04:33:17;;;;;;;85.00;54.35;;;-2.80;1.00;;;;;;5011427;28;20142;-78
2023/12/09 04:35:45;;;;;;;89.22;55.00;;;-2.80;1.00;;;;;;5012185;28;20046;-78
2023/12/09 04:38:12;;;;;;;88.60;54.85;;;-2.80;1.00;;;;;;5016168;28;20033;-78
2023/12/09 04:40:42;;;;;;;88.68;53.33;;;-2.70;1.00;;;;;;4999576;28;20070;-79
2023/12/09 04:43:10;;;;;;;93.88;58.42;;;-2.60;1.00;;;;;;5017090;28;20038;-79
2023/12/09 04:45:37;;;;;;;97.00;59.47;;;-2.60;99.90;;;;;;5012948;28;20073;-80
2023/12/09 04:48:05;;;;;;;110.15;64.40;;;-2.60;99.90;;;;;;5012618;28;20069;-77
2023/12/09 04:50:33;;;;;;;105.00;63.03;;;-2.60;1.00;;;;;;5008526;28;20044;-78
2023/12/09 04:53:02;;;;;;;101.40;60.50;;;-2.70;1.00;;;;;;5011362;28;20046;-78
2023/12/09 04:55:31;;;;;;;101.00;60.42;;;-2.70;1.00;;;;;;5011501;28;20038;-78
2023/12/09 04:58:00;;;;;;;100.00;60.65;;;-2.60;1.00;;;;;;4993613;28;20757;-79
2023/12/09 05:00:27;;;;;;;105.78;64.55;;;-2.70;99.90;;;;;;5011127;28;20065;-78
2023/12/09 05:02:55;;;;;;;102.88;61.40;;;-2.70;1.00;;;;;;5001099;28;20050;-81
2023/12/09 05:05:22;;;;;;;103.40;62.83;;;-2.80;1.00;;;;;;5010762;28;20441;-78
2023/12/09 05:07:50;;;;;;;105.43;64.57;;;-2.70;1.00;;;;;;5010877;28;20504;-77
2023/12/09 05:10:18;;;;;;;110.65;67.50;;;-2.80;1.00;;;;;;5010924;28;20045;-80
2023/12/09 05:12:46;;;;;;;109.10;66.95;;;-2.90;1.00;;;;;;5010779;28;20125;-79
2023/12/09 05:15:15;;;;;;;114.82;70.15;;;-2.90;15.50;;;;;;4994029;28;20502;-77
2023/12/09 05:17:42;;;;;;;115.50;72.05;;;-2.90;99.90;;;;;;5014817;28;20046;-79
2023/12/09 05:20:10;;;;;;;102.13;60.35;;;-2.90;99.90;;;;;;5017785;28;20096;-77
2023/12/09 05:22:38;;;;;;;134.45;77.80;;;-2.80;99.90;;;;;;5010545;28;20108;-78
2023/12/09 05:25:07;;;;;;;122.30;71.80;;;-2.80;1.00;;;;;;5010221;28;20113;-78
2023/12/09 05:27:34;;;;;;;118.90;71.85;;;-2.80;99.90;;;;;;5010762;28;20037;-78
2023/12/09 05:30:02;;;;;;;126.63;76.05;;;-2.70;99.90;;;;;;5012062;28;20560;-78
2023/12/09 05:32:31;;;;;;;132.15;77.95;;;-2.80;99.90;;;;;;5011089;28;20146;-79
2023/12/09 05:34:58;;;;;;;127.75;78.35;;;-2.80;99.90;;;;;;5010396;28;20045;-79
2023/12/09 05:37:26;;;;;;;135.07;79.18;;;-2.70;92.60;;;;;;5011251;28;20045;-79
2023/12/09 05:39:53;;;;;;;130.48;75.95;;;-2.80;99.90;;;;;;5010795;28;20042;-79
2023/12/09 05:42:21;;;;;;;145.07;83.10;;;-2.80;99.90;;;;;;5010986;28;20042;-80
2023/12/09 05:44:48;;;;;;;141.10;83.40;;;-2.80;99.90;;;;;;5010417;28;20108;-78
2023/12/09 05:47:16;;;;;;;134.38;80.95;;;-2.80;99.90;;;;;;5011193;28;20048;-78
2023/12/09 05:49:45;;;;;;;131.93;75.40;;;-2.80;99.90;;;;;;5010151;28;20061;-78
2023/12/09 05:52:13;;;;;;;123.72;73.38;;;-2.90;99.90;;;;;;5011391;28;20042;-79
2023/12/09 05:54:40;;;;;;;116.95;72.90;;;-2.90;99.90;;;;;;4982745;28;20058;-78
2023/12/09 05:57:08;;;;;;;115.25;70.25;;;-3.00;99.90;;;;;;4994604;28;20041;-78
2023/12/09 05:59:35;;;;;;;112.10;69.30;;;-3.00;99.90;;;;;;5017200;28;20041;-78
2023/12/09 06:02:03;;;;;;;123.45;73.63;;;-3.00;99.90;;;;;;5012907;28;20046;-78
2023/12/09 06:04:31;;;;;;;125.63;73.38;;;-3.00;1.00;;;;;;5013804;28;20034;-77
2023/12/09 06:07:00;;;;;;;120.40;73.55;;;-3.00;99.90;;;;;;5013582;28;20050;-80
2023/12/09 06:09:27;;;;;;;126.18;75.03;;;-3.00;99.90;;;;;;5014567;28;20037;-78
2023/12/09 06:11:56;;;;;;;123.63;75.68;;;-3.00;41.30;;;;;;5016058;28;20116;-80
2023/12/09 06:14:24;;;;;;;124.78;76.32;;;-3.00;66.40;;;;;;5012712;28;20105;-78
2023/12/09 06:16:51;;;;;;;128.75;77.72;;;-2.90;1.00;;;;;;5032641;28;20037;-79
2023/12/09 06:19:19;;;;;;;142.27;85.45;;;-2.90;1.00;;;;;;5030670;28;20046;-79
2023/12/09 06:21:46;;;;;;;159.43;90.32;;;-3.00;99.90;;;;;;5027327;28;20064;-79
2023/12/09 06:24:16;;;;;;;161.35;96.47;;;-3.10;1.00;;;;;;5008040;28;20049;-79
2023/12/09 06:26:54;;;;;;;184.45;109.03;;;-3.00;1.00;;;;;;5027850;28;20072;-80
2023/12/09 06:29:22;;;;;;;165.15;100.28;;;-3.00;1.00;;;;;;5018632;28;20100;-79
2023/12/09 06:31:49;;;;;;;164.95;98.40;;;-3.00;1.00;;;;;;4993306;28;20049;-78
2023/12/09 06:34:17;;;;;;;158.93;94.53;;;-2.90;1.00;;;;;;5010734;28;20042;-78
2023/12/09 06:36:44;;;;;;;159.68;96.72;;;-2.90;99.90;;;;;;5011626;28;20164;-78
2023/12/09 06:39:16;;;;;;;164.43;97.90;;;-2.80;72.30;;;;;;5010975;28;20069;-78
2023/12/09 06:41:44;;;;;;;161.75;96.70;;;-2.80;1.00;;;;;;5010477;28;20088;-78
2023/12/09 06:44:17;;;;;;;157.40;96.32;;;-2.70;1.00;;;;;;5011896;28;20474;-77
2023/12/09 06:46:45;;;;;;;158.45;93.13;;;-2.70;1.00;;;;;;5014579;28;20056;-78
2023/12/09 06:49:14;;;;;;;160.52;94.38;;;-2.60;1.00;;;;;;5012680;28;20445;-79
2023/12/09 06:51:43;;;;;;;159.25;93.43;;;-2.60;1.00;;;;;;5012377;28;20046;-77
2023/12/09 06:54:13;;;;;;;169.45;100.85;;;-2.50;99.90;;;;;;5010755;28;20042;-78
2023/12/09 06:56:42;;;;;;;162.45;96.88;;;-2.40;99.90;;;;;;5012631;28;20034;-76
2023/12/09 06:59:10;;;;;;;161.77;96.70;;;-2.30;1.00;;;;;;5012105;28;20176;-77
2023/12/09 07:01:37;;;;;;;158.52;95.88;;;-2.30;1.00;;;;;;4993489;28;20141;-79
2023/12/09 07:04:05;;;;;;;160.70;96.53;;;-2.30;99.90;;;;;;5010683;28;20129;-78
2023/12/09 07:06:33;;;;;;;162.95;100.65;;;-2.20;1.00;;;;;;5009972;28;20046;-80
2023/12/09 07:09:00;;;;;;;165.60;98.68;;;-2.20;1.00;;;;;;5010468;28;20133;-80
2023/12/09 07:11:28;;;;;;;160.07;96.80;;;-2.10;99.90;;;;;;4992817;28;20129;-78
2023/12/09 07:13:57;;;;;;;178.48;105.78;;;-2.00;99.90;;;;;;4994627;28;20482;-76
2023/12/09 07:16:24;;;;;;;180.07;111.57;;;-1.90;96.60;;;;;;5011353;28;20254;-79
2023/12/09 07:18:58;;;;;;;188.18;114.78;;;-1.90;1.00;;;;;;5009203;28;20521;-78
2023/12/09 07:21:27;;;;;;;191.50;115.60;;;-1.80;1.00;;;;;;5008581;28;20612;-77
2023/12/09 07:23:55;;;;;;;202.10;121.40;;;-1.80;1.00;;;;;;4991860;28;20052;-76
2023/12/09 07:26:23;;;;;;;216.90;130.02;;;-1.70;1.00;;;;;;5009808;28;20374;-77
2023/12/09 07:28:50;;;;;;;217.80;130.52;;;-1.60;1.00;;;;;;5009671;28;20042;-77
2023/12/09 07:31:19;;;;;;;210.90;127.00;;;-1.60;1.00;;;;;;5010847;28;20103;-78
2023/12/09 07:33:47;;;;;;;198.27;120.13;;;-1.50;1.00;;;;;;5011958;28;20037;-78
2023/12/09 07:36:14;;;;;;;208.88;129.30;;;-1.50;1.00;;;;;;5012676;28;20050;-76
2023/12/09 07:38:42;;;;;;;226.35;137.18;;;-1.40;1.00;;;;;;5012258;28;20034;-78
2023/12/09 07:41:09;;;;;;;201.48;123.65;;;-1.40;1.00;;;;;;5012601;28;20073;-78
2023/12/09 07:43:36;;;;;;;178.88;111.57;;;-1.40;99.90;;;;;;4994720;28;20085;-79
2023/12/09 07:46:04;;;;;;;192.63;120.82;;;-1.30;99.90;;;;;;5013258;28;20049;-77
2023/12/09 07:48:33;;;;;;;214.38;128.82;;;-1.30;99.90;;;;;;5013073;28;20099;-78
2023/12/09 07:51:01;;;;;;;208.15;127.55;;;-1.20;99.90;;;;;;5012245;28;20049;-78
2023/12/09 07:53:29;;;;;;;225.02;134.57;;;-1.20;1.00;;;;;;5012080;28;20509;-78
2023/12/09 07:55:58;;;;;;;260.48;156.90;;;-1.00;1.00;;;;;;5016429;28;20042;-79
2023/12/09 07:58:26;;;;;;;266.92;159.02;;;-0.90;99.90;;;;;;5024709;28;20044;-77
2023/12/09 08:00:53;;;;;;;274.40;162.25;;;-0.90;99.90;;;;;;5015886;28;20387;-78
2023/12/09 08:03:21;;;;;;;264.50;159.55;;;-0.80;99.90;;;;;;5012611;28;20065;-78
2023/12/09 08:05:50;;;;;;;282.05;174.05;;;-0.80;99.90;;;;;;4995711;28;20485;-78
2023/12/09 08:08:17;;;;;;;292.13;181.55;;;-0.70;1.00;;;;;;5013117;28;20034;-78
2023/12/09 08:10:45;;;;;;;314.77;196.55;;;-0.60;1.00;;;;;;5012105;28;20042;-77
2023/12/09 08:13:13;;;;;;;319.60;199.50;;;-0.60;1.00;;;;;;5015015;28;20398;-81
2023/12/09 08:15:40;;;;;;;317.10;198.07;;;-0.50;1.00;;;;;;5014462;28;20390;-81
2023/12/09 08:18:07;;;;;;;313.35;189.02;;;-0.50;99.90;;;;;;5013583;28;20498;-80
2023/12/09 08:20:35;;;;;;;300.70;177.35;;;-0.40;1.00;;;;;;5013305;28;20038;-77
2023/12/09 08:23:04;;;;;;;287.95;168.02;;;-0.30;1.00;;;;;;4993019;28;20057;-78
2023/12/09 08:25:32;;;;;;;250.70;139.88;;;-0.10;99.90;;;;;;5012651;28;20049;-80
2023/12/09 08:27:59;;;;;;;260.40;142.48;;;0.00;99.90;;;;;;5010647;28;20449;-78
2023/12/09 08:30:27;;;;;;;256.73;140.50;;;0.20;99.90;;;;;;4994693;28;20048;-78
2023/12/09 08:32:54;;;;;;;256.30;138.10;;;0.30;99.90;;;;;;5011463;28;20062;-79
2023/12/09 08:35:22;;;;;;;254.63;137.00;;;0.40;99.90;;;;;;4994673;28;20061;-80
2023/12/09 08:37:49;;;;;;;252.13;136.63;;;0.50;99.90;;;;;;5012981;28;20041;-77
2023/12/09 08:40:18;;;;;;;257.30;135.60;;;0.60;99.90;;;;;;5012968;28;20453;-78
2023/12/09 08:42:47;;;;;;;249.55;132.35;;;0.70;27.00;;;;;;5011502;28;20478;-79
2023/12/09 08:48:45;;;;;;;249.57;128.25;;;0.80;1.00;;;;;;4992514;28;20060;-77
2023/12/09 08:51:13;;;;;;;262.80;137.02;;;1.00;67.50;;;;;;5011498;28;20158;-76
2023/12/09 08:53:40;;;;;;;271.85;137.38;;;1.20;1.00;;;;;;5007569;28;20048;-78
2023/12/09 08:56:10;;;;;;;287.38;144.18;;;1.30;1.00;;;;;;5013227;28;20049;-78
2023/12/09 08:58:46;;;;;;;286.00;139.80;;;1.40;1.00;;;;;;4993109;28;20034;-82
2023/12/09 09:01:29;;;;;;;285.13;140.73;;;1.60;99.90;;;;;;5012472;28;20058;-86
2023/12/09 09:03:56;;;;;;;280.33;141.20;;;1.60;94.50;;;;;;5010330;28;20128;-78
2023/12/09 09:06:24;;;;;;;258.60;127.85;;;1.50;99.90;;;;;;5010025;28;20042;-79
2023/12/09 09:08:51;;;;;;;248.52;127.75;;;1.60;1.00;;;;;;5010447;28;20065;-80
2023/12/09 09:11:21;;;;;;;234.23;122.13;;;1.70;1.00;;;;;;5009701;28;20092;-78
2023/12/09 09:13:48;;;;;;;242.27;115.05;;;1.90;99.90;;;;;;5010641;28;20045;-79
2023/12/09 09:16:16;;;;;;;246.10;117.00;;;2.00;1.00;;;;;;5009925;28;20065;-80
2023/12/09 09:18:44;;;;;;;247.82;116.80;;;1.90;1.00;;;;;;5009124;28;20034;-79
2023/12/09 09:21:12;;;;;;;261.70;116.35;;;2.00;1.00;;;;;;5009639;28;20076;-78
2023/12/09 09:26:39;;;;;;;274.60;122.15;;;2.10;1.00;;;;;;4991493;28;20512;-80
2023/12/09 09:29:07;;;;;;;275.23;120.95;;;2.10;1.00;;;;;;4991565;28;20115;-80
2023/12/09 09:31:34;;;;;;;290.08;121.03;;;2.10;1.00;;;;;;5007906;28;20041;-79
2023/12/09 09:34:02;;;;;;;304.15;121.18;;;2.20;1.00;;;;;;5008761;28;20046;-80
2023/12/09 09:36:30;;;;;;;299.55;123.15;;;2.10;1.00;;;;;;5009807;28;20045;-80
2023/12/09 09:38:59;;;;;;;308.20;126.75;;;2.20;1.00;;;;;;4992322;28;20042;-80
2023/12/09 09:41:40;;;;;;;315.73;128.95;;;2.20;1.00;;;;;;5009922;28;20125;-80
2023/12/09 09:44:12;;;;;;;324.55;124.93;;;2.20;99.90;;;;;;5009114;28;20068;-79
2023/12/09 09:46:40;;;;;;;387.17;139.27;;;2.20;1.00;;;;;;5008963;28;20050;-79
2023/12/09 09:49:10;;;;;;;393.92;140.90;;;2.20;1.00;;;;;;5010286;28;20065;-77
2023/12/09 09:51:45;;;;;;;423.60;150.32;;;2.30;1.00;;;;;;4992615;28;20046;-80
2023/12/09 09:54:21;;;;;;;446.33;149.07;;;2.40;1.00;;;;;;5010182;28;20042;-80
2023/12/09 09:56:50;;;;;;;442.52;145.27;;;2.60;1.00;;;;;;5010874;28;20045;-80
2023/12/09 09:59:20;;;;;;;418.42;137.50;;;2.70;99.90;;;;;;5010528;28;20046;-81
2023/12/09 10:01:48;;;;;;;425.30;137.88;;;2.80;99.90;;;;;;5010501;28;20160;-79
2023/12/09 10:04:30;;;;;;;413.35;137.88;;;2.90;1.00;;;;;;5010006;28;20494;-78
2023/12/09 10:06:59;;;;;;;454.83;138.90;;;2.90;1.00;;;;;;4996215;28;20038;-80
2023/12/09 10:09:46;;;;;;;472.30;139.32;;;2.80;1.00;;;;;;5020460;28;20045;-78
2023/12/09 10:12:21;;;;;;;441.45;130.35;;;2.90;1.00;;;;;;5006410;28;20053;-80
2023/12/09 10:15:00;;;;;;;436.98;138.45;;;2.90;1.00;;;;;;5022449;28;20109;-78
2023/12/09 10:17:32;;;;;;;422.30;130.50;;;3.00;1.00;;;;;;4998506;28;20055;-79
2023/12/09 10:20:22;;;;;;;413.35;132.50;;;3.00;1.00;;;;;;4996032;28;20184;-78
2023/12/09 10:23:10;;;;;;;400.20;125.65;;;3.20;1.00;;;;;;5005116;28;20121;-78
2023/12/09 10:25:49;;;;;;;401.50;123.78;;;3.30;99.90;;;;;;4992193;28;20042;-78
2023/12/09 10:28:16;;;;;;;392.55;128.85;;;3.40;1.00;;;;;;4993089;28;20584;-77
2023/12/09 10:30:50;;;;;;;374.70;122.28;;;3.40;1.00;;;;;;4992978;28;20105;-78
2023/12/09 10:33:18;;;;;;;381.38;129.82;;;3.20;1.00;;;;;;4991848;28;20042;-76
2023/12/09 10:35:46;;;;;;;401.92;131.13;;;3.10;1.00;;;;;;4990127;28;20050;-78
2023/12/09 10:38:17;;;;;;;395.48;132.50;;;3.00;99.90;;;;;;4993392;28;20050;-78
2023/12/09 10:40:44;;;;;;;385.42;124.13;;;3.20;99.90;;;;;;5008026;28;20038;-80
2023/12/09 10:43:13;;;;;;;397.67;129.55;;;3.40;25.80;;;;;;5011967;28;20053;-79
2023/12/09 10:45:41;;;;;;;411.52;131.90;;;3.70;1.00;;;;;;4996767;28;20053;-79
2023/12/09 10:48:10;;;;;;;376.05;129.68;;;3.80;1.00;;;;;;4991762;28;20387;-77
2023/12/09 10:50:37;;;;;;;390.90;129.80;;;3.90;1.00;;;;;;4989699;28;20037;-77
2023/12/09 10:53:05;;;;;;;412.88;139.50;;;3.90;99.90;;;;;;4990670;28;20042;-78
2023/12/09 10:55:33;;;;;;;408.50;135.55;;;3.90;1.00;;;;;;4990921;28;20038;-78
2023/12/09 10:58:03;;;;;;;406.00;135.70;;;3.50;99.90;;;;;;4985789;28;20042;-76
2023/12/09 11:00:32;;;;;;;385.83;137.50;;;3.40;1.00;;;;;;4989586;28;20050;-76
2023/12/09 11:03:01;;;;;;;368.42;132.10;;;3.60;1.00;;;;;;4989841;28;20046;-77
2023/12/09 11:05:33;;;;;;;339.60;126.10;;;3.70;1.00;;;;;;4993827;28;20133;-79
2023/12/09 11:08:01;;;;;;;349.42;128.60;;;3.80;1.00;;;;;;4988246;28;20562;-78
2023/12/09 11:10:29;;;;;;;358.33;132.13;;;3.80;1.00;;;;;;4989954;28;20041;-80
2023/12/09 11:12:57;;;;;;;346.58;129.27;;;3.90;99.90;;;;;;4989406;28;20138;-79
2023/12/09 11:15:31;;;;;;;281.30;110.60;;;3.90;99.90;;;;;;4988314;28;20046;-77
2023/12/09 11:18:08;;;;;;;287.17;115.30;;;3.90;99.90;;;;;;4988930;28;20125;-78
2023/12/09 11:20:39;;;;;;;277.63;108.65;;;3.90;99.90;;;;;;4988105;28;20106;-77
2023/12/09 11:23:11;;;;;;;307.80;112.82;;;3.80;99.90;;;;;;4997407;28;20137;-79
2023/12/09 11:25:40;;;;;;;291.95;113.57;;;3.80;99.90;;;;;;5008085;28;20445;-79
2023/12/09 11:28:08;;;;;;;275.38;111.15;;;3.90;99.90;;;;;;4990334;28;20122;-79
2023/12/09 11:30:37;;;;;;;300.25;118.05;;;4.00;99.90;;;;;;5008080;28;20108;-78
2023/12/09 11:33:05;;;;;;;290.92;117.32;;;4.00;99.90;;;;;;5006809;28;20052;-78
2023/12/09 11:35:37;;;;;;;318.52;121.47;;;4.10;99.90;;;;;;5007869;28;20486;-78
2023/12/09 11:38:09;;;;;;;306.15;121.43;;;4.20;99.90;;;;;;5006577;28;20050;-80
2023/12/09 11:40:37;;;;;;;299.10;119.97;;;4.10;99.90;;;;;;5006272;28;20034;-79
2023/12/09 11:43:06;;;;;;;331.48;126.22;;;4.10;99.90;;;;;;5006544;28;20138;-77
2023/12/09 11:45:33;;;;;;;323.25;123.35;;;4.00;99.90;;;;;;4989837;28;20049;-78
2023/12/09 11:48:05;;;;;;;320.75;124.13;;;4.10;99.90;;;;;;5015351;28;20097;-78
2023/12/09 11:50:32;;;;;;;325.55;124.53;;;3.70;1.00;;;;;;5000701;28;20191;-77
2023/12/09 11:53:01;;;;;;;320.70;123.30;;;3.80;1.00;;;;;;5008042;28;20100;-77
2023/12/09 11:55:29;;;;;;;319.55;124.07;;;4.00;1.00;;;;;;5008593;28;20077;-79
2023/12/09 11:57:56;;;;;;;410.83;172.55;;;4.20;1.00;;;;;;5009014;28;20599;-77
2023/12/09 12:00:24;;;;;;;303.63;121.88;;;4.30;1.00;;;;;;5008454;28;20096;-77
2023/12/09 12:02:52;;;;;;;279.90;115.13;;;4.50;99.90;;;;;;5008632;28;20038;-78
2023/12/09 12:05:19;;;;;;;267.02;111.68;;;4.50;99.90;;;;;;5007411;28;20041;-77
2023/12/09 12:07:47;;;;;;;253.45;108.15;;;4.60;99.90;;;;;;5007508;28;20116;-78
2023/12/09 12:10:17;;;;;;;270.52;108.93;;;4.50;99.90;;;;;;5007014;28;20042;-78
2023/12/09 12:12:44;;;;;;;265.10;108.40;;;4.50;99.90;;;;;;5007020;28;20077;-77
2023/12/09 12:15:12;;;;;;;265.55;105.82;;;4.50;99.90;;;;;;5006914;28;20097;-78
2023/12/09 12:17:40;;;;;;;255.07;102.72;;;4.60;99.90;;;;;;5009827;28;20041;-79
2023/12/09 12:20:11;;;;;;;260.52;103.75;;;4.50;49.40;;;;;;5011108;28;20177;-76
2023/12/09 12:22:40;;;;;;;248.02;102.40;;;4.50;99.90;;;;;;4993988;28;20927;-77
2023/12/09 12:25:09;;;;;;;245.45;99.40;;;4.50;94.90;;;;;;4995909;28;20052;-79
2023/12/09 12:27:44;;;;;;;251.55;101.55;;;4.50;99.90;;;;;;4993234;28;20145;-78
2023/12/09 12:30:13;;;;;;;248.57;103.20;;;4.50;99.90;;;;;;5012337;28;20061;-77
2023/12/09 12:32:40;;;;;;;254.65;113.53;;;4.50;99.90;;;;;;5010866;28;20046;-79
2023/12/09 12:35:09;;;;;;;254.68;112.40;;;4.50;99.90;;;;;;4993195;28;20052;-76